Time;durP1;ratioP1;P1;durP2;ratioP2;P2;SDS_P1;SDS_P2;PMS_P1;PMS_P2;Temp;Humidity;BMP_temperature;BMP_pressure;BME280_temperature;BME280_humidity;BME280_pressure;Samples;Min_cycle;Max_cycle;Signal;HPM_P1;HPM_P2
2021/06/17 00:00:37;;;;;;;13.20;11.85;;;;;;;21.38;67.75;100577.03;5105774;28;20223;-67
2021/06/17 00:03:04;;;;;;;13.80;11.80;;;;;;;21.29;67.35;100578.06;5102837;28;20209;-68
2021/06/17 00:05:34;;;;;;;13.47;12.17;;;;;;;21.17;67.46;100565.81;5104195;28;20201;-68
2021/06/17 00:08:02;;;;;;;12.93;11.83;;;;;;;21.10;67.90;100570.22;5102974;28;20213;-68
2021/06/17 00:10:33;;;;;;;13.40;12.30;;;;;;;21.07;68.20;100578.66;5106584;28;20657;-68
2021/06/17 00:13:01;;;;;;;13.07;11.97;;;;;;;21.04;68.45;100570.88;5101203;28;20210;-68
2021/06/17 00:15:29;;;;;;;12.80;11.77;;;;;;;21.01;68.36;100572.03;5104250;28;20206;-68
2021/06/17 00:17:55;;;;;;;13.07;11.87;;;;;;;21.01;68.58;100571.19;5110224;28;20750;-68
2021/06/17 00:20:23;;;;;;;12.33;11.40;;;;;;;20.99;68.54;100570.50;5110722;28;20227;-68
2021/06/17 00:22:51;;;;;;;14.47;12.97;;;;;;;20.96;68.78;100566.28;5106381;28;20207;-68
2021/06/17 00:25:18;;;;;;;13.13;12.03;;;;;;;20.93;68.38;100568.50;5103859;28;20213;-68
2021/06/17 00:27:44;;;;;;;11.97;10.87;;;;;;;20.89;68.36;100567.13;5105328;28;20234;-68
2021/06/17 00:30:13;;;;;;;13.10;11.97;;;;;;;20.83;68.39;100565.06;5107618;28;20212;-67
2021/06/17 00:32:39;;;;;;;16.33;11.63;;;;;;;20.75;68.31;100564.06;5108968;28;20202;-67
2021/06/17 00:35:08;;;;;;;13.67;11.40;;;;;;;20.72;68.51;100571.66;5106869;28;20195;-68
2021/06/17 00:37:35;;;;;;;13.57;12.37;;;;;;;20.68;68.38;100563.00;5105560;28;20725;-68
2021/06/17 00:40:04;;;;;;;11.83;10.73;;;;;;;20.64;68.09;100569.75;5104534;28;20216;-68
2021/06/17 00:42:31;;;;;;;12.60;11.37;;;;;;;20.59;68.09;100572.13;5107330;28;20687;-68
2021/06/17 00:44:57;;;;;;;14.60;11.47;;;;;;;20.49;67.83;100574.09;5102027;28;20208;-67
2021/06/17 00:47:24;;;;;;;19.37;13.20;;;;;;;20.37;67.75;100575.41;5106016;28;20234;-68
2021/06/17 00:49:51;;;;;;;16.40;11.60;;;;;;;20.29;67.67;100572.59;5106236;28;20210;-67
2021/06/17 00:52:18;;;;;;;13.97;11.23;;;;;;;20.25;68.04;100568.53;5108484;28;20208;-68
2021/06/17 00:54:44;;;;;;;13.40;12.00;;;;;;;20.23;68.43;100576.81;5106942;28;20635;-68
2021/06/17 00:57:13;;;;;;;16.13;12.03;;;;;;;20.22;68.75;100569.72;5105145;28;20229;-68
2021/06/17 00:59:39;;;;;;;13.50;12.30;;;;;;;20.22;68.70;100566.16;5108575;28;20233;-67
2021/06/17 01:02:06;;;;;;;12.57;11.37;;;;;;;20.21;68.83;100562.63;5100329;28;20206;-68
2021/06/17 01:04:33;;;;;;;13.80;12.50;;;;;;;20.22;69.29;100574.28;5105589;28;20207;-68
2021/06/17 01:07:01;;;;;;;13.50;12.20;;;;;;;20.22;69.20;100560.75;5107112;28;20769;-68
2021/06/17 01:09:40;;;;;;;13.33;11.63;;;;;;;20.24;69.03;100564.16;5108318;28;20828;-68
2021/06/17 01:12:15;;;;;;;13.63;12.27;;;;;;;20.22;69.04;100561.59;5113893;28;20289;-68
2021/06/17 01:14:48;;;;;;;14.87;11.93;;;;;;;20.19;69.19;100559.22;5109844;28;20203;-68
2021/06/17 01:17:18;;;;;;;14.03;11.97;;;;;;;20.15;68.84;100554.28;5108317;28;20230;-68
2021/06/17 01:19:53;;;;;;;13.90;12.37;;;;;;;20.09;68.90;100551.22;5114029;28;20236;-68
2021/06/17 01:22:31;;;;;;;14.90;13.50;;;;;;;20.05;69.22;100547.16;5102856;28;20198;-68
2021/06/17 01:25:12;;;;;;;14.73;13.07;;;;;;;19.96;69.32;100545.41;5100632;28;20198;-68
2021/06/17 01:28:11;;;;;;;13.73;12.40;;;;;;;19.87;69.47;100557.19;5113530;28;20230;-68
2021/06/17 01:30:46;;;;;;;15.50;12.80;;;;;;;19.76;69.50;100544.75;5108042;28;20664;-68
2021/06/17 01:33:14;;;;;;;15.97;13.23;;;;;;;19.69;69.85;100545.59;5109063;27;20205;-68
2021/06/17 01:35:45;;;;;;;15.83;13.63;;;;;;;19.60;70.03;100541.97;5107375;28;20198;-68
2021/06/17 01:38:14;;;;;;;14.70;12.00;;;;;;;19.55;70.28;100540.72;5106192;28;20218;-68
2021/06/17 01:40:42;;;;;;;14.30;12.80;;;;;;;19.50;70.48;100537.66;5100563;28;20244;-68
2021/06/17 01:43:10;;;;;;;13.43;12.23;;;;;;;19.46;70.42;100539.78;5096484;28;20682;-67
2021/06/17 01:45:37;;;;;;;13.87;12.57;;;;;;;19.45;70.83;100546.19;5105681;28;20236;-67
2021/06/17 01:48:05;;;;;;;14.57;13.13;;;;;;;19.43;70.83;100537.41;5110743;28;20234;-68
2021/06/17 01:50:33;;;;;;;13.87;12.47;;;;;;;19.40;70.94;100541.25;5110592;28;20246;-67
2021/06/17 01:53:00;;;;;;;14.40;12.97;;;;;;;19.38;71.09;100540.56;5108473;28;20607;-68
2021/06/17 01:55:30;;;;;;;15.87;14.27;;;;;;;19.35;71.15;100538.16;5112575;28;20552;-68
2021/06/17 01:58:00;;;;;;;16.20;14.60;;;;;;;19.32;71.54;100532.25;5110389;28;20604;-67
2021/06/17 02:00:30;;;;;;;17.67;14.67;;;;;;;19.30;71.82;100536.97;5104509;28;20717;-68
2021/06/17 02:02:57;;;;;;;15.53;14.03;;;;;;;19.26;71.95;100533.72;5112021;28;20216;-68
2021/06/17 02:05:24;;;;;;;15.97;14.30;;;;;;;19.25;72.12;100532.03;5108346;28;20692;-67
2021/06/17 02:07:52;;;;;;;14.20;12.97;;;;;;;19.24;72.11;100533.03;5110211;28;20223;-68
2021/06/17 02:10:20;;;;;;;14.63;13.23;;;;;;;19.23;72.37;100535.88;5108711;28;20197;-68
2021/06/17 02:12:48;;;;;;;15.37;14.00;;;;;;;19.23;72.47;100541.28;5103541;28;20574;-68
2021/06/17 02:15:15;;;;;;;14.97;13.40;;;;;;;19.22;72.56;100537.72;5103884;28;20920;-67
2021/06/17 02:17:47;;;;;;;14.93;13.57;;;;;;;19.21;72.34;100532.47;5106298;27;20222;-67
2021/06/17 02:20:17;;;;;;;15.23;13.70;;;;;;;19.19;72.65;100534.47;5111260;28;20206;-68
2021/06/17 02:22:45;;;;;;;14.70;13.27;;;;;;;19.19;72.82;100535.34;5109763;28;20210;-67
2021/06/17 02:25:16;;;;;;;15.23;13.83;;;;;;;19.19;73.04;100531.78;5107897;28;20218;-67
2021/06/17 02:27:45;;;;;;;15.00;13.13;;;;;;;19.19;72.88;100529.09;5111699;27;20268;-67
2021/06/17 02:30:14;;;;;;;14.77;13.27;;;;;;;19.16;72.54;100524.03;5107935;28;20261;-68
2021/06/17 02:32:46;;;;;;;17.17;13.50;;;;;;;19.12;72.43;100525.34;5111078;28;20630;-68
2021/06/17 02:35:14;;;;;;;16.07;14.43;;;;;;;19.02;72.38;100523.53;5100146;28;20577;-67
2021/06/17 02:37:45;;;;;;;13.93;12.63;;;;;;;18.93;72.37;100519.09;5110881;28;20235;-67
2021/06/17 02:40:13;;;;;;;15.73;13.10;;;;;;;18.89;72.55;100516.84;5107524;28;20220;-68
2021/06/17 02:42:41;;;;;;;14.70;13.27;;;;;;;18.85;72.88;100520.84;5111152;28;20209;-68
2021/06/17 02:45:09;;;;;;;15.30;14.00;;;;;;;18.83;72.86;100517.44;5107764;27;20196;-67
2021/06/17 02:47:36;;;;;;;15.03;13.63;;;;;;;18.80;72.96;100523.19;5110621;28;20235;-67
2021/06/17 02:50:06;;;;;;;13.87;12.17;;;;;;;18.78;72.76;100517.94;5106812;28;20201;-67
2021/06/17 02:52:33;;;;;;;14.80;13.40;;;;;;;18.77;72.89;100523.47;5109895;28;20193;-68
2021/06/17 02:54:59;;;;;;;14.13;12.83;;;;;;;18.77;72.90;100518.06;5110285;28;20678;-68
2021/06/17 02:57:35;;;;;;;14.57;13.17;;;;;;;18.77;73.03;100523.47;5111972;28;20247;-67
2021/06/17 03:00:09;;;;;;;13.80;12.60;;;;;;;18.76;73.02;100517.22;5102873;28;20535;-68
2021/06/17 03:02:42;;;;;;;15.00;13.63;;;;;;;18.78;73.01;100519.78;5107021;28;20217;-68
2021/06/17 03:05:16;;;;;;;15.10;12.67;;;;;;;18.73;72.86;100523.78;5106239;28;20200;-68
2021/06/17 03:07:49;;;;;;;14.90;13.40;;;;;;;18.69;72.69;100516.97;5109702;28;20230;-68
2021/06/17 03:10:17;;;;;;;16.33;12.60;;;;;;;18.63;72.59;100517.56;5104740;28;20201;-67
2021/06/17 03:12:46;;;;;;;15.37;13.50;;;;;;;18.55;72.47;100522.88;5103860;28;20207;-67
2021/06/17 03:15:13;;;;;;;15.17;12.93;;;;;;;18.49;72.67;100526.16;5109676;28;20727;-68
2021/06/17 03:17:44;;;;;;;14.07;12.67;;;;;;;18.46;72.96;100528.31;5106271;28;20223;-67
2021/06/17 03:20:13;;;;;;;14.93;13.43;;;;;;;18.42;73.18;100530.47;5111524;28;20739;-68
2021/06/17 03:22:45;;;;;;;15.60;13.97;;;;;;;18.41;73.34;100527.94;5108741;28;20211;-67
2021/06/17 03:25:16;;;;;;;18.33;12.87;;;;;;;18.39;73.52;100530.78;5099278;28;20209;-68
2021/06/17 03:27:44;;;;;;;15.30;13.63;;;;;;;18.37;73.87;100530.06;5109236;28;20232;-68
2021/06/17 03:30:13;;;;;;;15.87;14.27;;;;;;;18.37;73.98;100530.91;5101221;28;20204;-68
2021/06/17 03:32:41;;;;;;;14.67;13.47;;;;;;;18.36;74.06;100526.53;5109597;28;20202;-69
2021/06/17 03:35:09;;;;;;;17.20;13.73;;;;;;;18.38;74.24;100529.91;5103421;28;20209;-69
2021/06/17 03:37:38;;;;;;;18.27;14.93;;;;;;;18.38;74.26;100526.38;5100270;28;20228;-68
2021/06/17 03:40:06;;;;;;;15.87;14.20;;;;;;;18.35;74.20;100524.81;5109308;28;20216;-68
2021/06/17 03:42:35;;;;;;;17.53;15.03;;;;;;;18.32;74.39;100521.56;5102909;28;20203;-68
2021/06/17 03:45:02;;;;;;;18.27;14.57;;;;;;;18.28;74.21;100517.47;5106007;28;20806;-68
2021/06/17 03:47:30;;;;;;;17.77;13.50;;;;;;;18.23;74.24;100520.63;5120013;22;20208;-68
2021/06/17 03:49:57;;;;;;;19.20;15.17;;;;;;;18.18;74.63;100528.31;5105358;28;20210;-67
2021/06/17 03:52:25;;;;;;;16.03;13.93;;;;;;;18.18;74.72;100527.47;5098250;28;20212;-66
2021/06/17 03:54:55;;;;;;;15.53;13.93;;;;;;;18.20;74.94;100523.63;5095161;28;20209;-68
2021/06/17 03:57:23;;;;;;;16.07;14.43;;;;;;;18.23;75.00;100531.41;5106847;28;20664;-67
2021/06/17 03:59:55;;;;;;;15.10;13.60;;;;;;;18.28;75.04;100542.59;5098401;28;20296;-69
2021/06/17 04:02:23;;;;;;;15.47;13.87;;;;;;;18.33;75.15;100532.22;5095792;28;20200;-67
2021/06/17 04:04:51;;;;;;;17.43;15.07;;;;;;;18.36;75.21;100529.22;5095062;28;20200;-69
2021/06/17 04:07:22;;;;;;;16.87;15.23;;;;;;;18.39;75.16;100528.06;5096515;28;20203;-67
2021/06/17 04:09:50;;;;;;;16.53;14.83;;;;;;;18.40;75.28;100521.69;5093923;28;20684;-68
2021/06/17 04:12:22;;;;;;;18.93;16.43;;;;;;;18.37;75.40;100520.13;5098336;28;20204;-67
2021/06/17 04:14:50;;;;;;;17.07;15.43;;;;;;;18.35;75.66;100516.72;5104612;28;20249;-67
2021/06/17 04:17:20;;;;;;;17.47;15.17;;;;;;;18.36;76.04;100523.81;5105765;28;20573;-68
2021/06/17 04:19:48;;;;;;;15.93;14.43;;;;;;;18.37;76.19;100521.97;5109930;28;20212;-68
2021/06/17 04:22:16;;;;;;;15.97;14.47;;;;;;;18.39;76.50;100530.78;5108265;28;20241;-69
2021/06/17 04:24:47;;;;;;;18.03;16.37;;;;;;;18.43;76.47;100532.19;5106068;28;20668;-70
2021/06/17 04:27:15;;;;;;;17.17;15.67;;;;;;;18.49;76.82;100522.63;5102534;28;20200;-68
2021/06/17 04:29:43;;;;;;;17.07;15.37;;;;;;;18.54;76.94;100523.88;5096807;28;20212;-69
2021/06/17 04:32:12;;;;;;;17.30;15.73;;;;;;;18.61;76.98;100530.41;5094313;28;20547;-68
2021/06/17 04:34:41;;;;;;;18.80;16.97;;;;;;;18.67;77.09;100520.81;5095219;28;20209;-67
2021/06/17 04:37:11;;;;;;;19.77;17.47;;;;;;;18.70;76.91;100524.06;5093055;28;20674;-70
2021/06/17 04:39:38;;;;;;;19.90;17.87;;;;;;;18.72;76.84;100529.31;5092445;28;20213;-68
2021/06/17 04:42:05;;;;;;;19.17;16.97;;;;;;;18.75;76.98;100525.47;5090603;28;20539;-67
2021/06/17 04:44:32;;;;;;;17.97;16.07;;;;;;;18.79;77.10;100521.47;5091887;28;20201;-68
2021/06/17 04:47:01;;;;;;;20.07;16.67;;;;;;;18.83;77.25;100514.75;5093099;28;20290;-67
2021/06/17 04:49:30;;;;;;;18.57;16.67;;;;;;;18.90;77.66;100519.38;5091708;28;20232;-67
2021/06/17 04:51:58;;;;;;;21.27;16.93;;;;;;;18.99;77.97;100509.50;5091527;28;20197;-67
2021/06/17 04:54:25;;;;;;;22.00;19.67;;;;;;;19.09;78.19;100513.00;5092062;28;20574;-67
2021/06/17 04:56:52;;;;;;;26.17;19.83;;;;;;;19.19;78.54;100507.50;5097782;28;20202;-68
2021/06/17 04:59:18;;;;;;;21.00;18.80;;;;;;;19.29;78.60;100516.38;5089374;28;20225;-67
2021/06/17 05:01:45;;;;;;;21.50;19.23;;;;;;;19.36;78.87;100518.25;5090533;28;20221;-67
2021/06/17 05:04:14;;;;;;;23.53;20.80;;;;;;;19.45;78.92;100518.34;5103883;28;20208;-68
2021/06/17 05:06:52;;;;;;;24.50;22.10;;;;;;;19.52;78.85;100517.59;5094894;28;21129;-67
2021/06/17 05:12:03;;;;;;;25.87;23.20;;;;;;;19.69;78.54;100519.41;5093837;28;20740;-68
2021/06/17 05:14:29;;;;;;;26.17;23.23;;;;;;;19.76;78.33;100523.16;5093116;28;20206;-67
2021/06/17 05:16:56;;;;;;;25.33;22.90;;;;;;;19.84;78.07;100524.22;5107402;28;20232;-69
2021/06/17 05:19:23;;;;;;;23.97;21.50;;;;;;;19.92;77.75;100521.53;5101280;28;20234;-69
2021/06/17 05:21:50;;;;;;;26.47;22.50;;;;;;;20.00;77.43;100529.72;5093415;28;20232;-68
2021/06/17 05:24:17;;;;;;;24.23;21.77;;;;;;;20.08;77.44;100532.44;5109733;28;20209;-68
2021/06/17 05:26:43;;;;;;;25.63;21.37;;;;;;;20.21;77.29;100532.03;5094035;28;20210;-68
2021/06/17 05:29:09;;;;;;;22.43;19.67;;;;;;;20.33;76.87;100531.56;5101835;28;20225;-67
2021/06/17 05:31:36;;;;;;;21.73;18.77;;;;;;;20.47;76.50;100540.09;5092176;28;20199;-68
2021/06/17 05:34:03;;;;;;;18.90;17.10;;;;;;;20.56;75.86;100545.38;5090140;28;20213;-67
2021/06/17 05:36:30;;;;;;;20.10;18.20;;;;;;;20.67;75.45;100541.50;5089982;28;20558;-67
2021/06/17 05:38:57;;;;;;;19.43;17.30;;;;;;;20.81;75.37;100551.69;5095046;28;20223;-67
2021/06/17 05:41:23;;;;;;;19.50;17.07;;;;;;;20.99;75.43;100543.44;5096813;28;20234;-67
2021/06/17 05:43:50;;;;;;;20.57;18.53;;;;;;;21.19;75.09;100554.81;5093657;28;20679;-68
2021/06/17 05:46:16;;;;;;;21.00;18.33;;;;;;;21.36;74.69;100551.97;5092460;28;20213;-67
2021/06/17 05:48:43;;;;;;;22.67;18.40;;;;;;;21.57;74.31;100551.47;5092050;28;20750;-67
2021/06/17 05:51:10;;;;;;;18.70;16.90;;;;;;;21.80;73.79;100554.31;5094634;28;20588;-67
2021/06/17 05:53:37;;;;;;;20.57;16.80;;;;;;;22.01;72.98;100562.78;5095249;28;20208;-68
2021/06/17 05:56:05;;;;;;;18.00;16.27;;;;;;;22.23;72.24;100554.91;5093009;28;20206;-68
2021/06/17 05:58:31;;;;;;;16.67;15.03;;;;;;;22.47;71.50;100561.09;5099111;28;20221;-68
2021/06/17 06:00:58;;;;;;;15.85;14.35;;;;;;;22.69;70.73;100556.75;5092707;28;20299;-68
2021/06/17 06:03:25;;;;;;;14.90;13.40;;;;;;;22.92;69.82;100554.13;5092644;28;20206;-67
2021/06/17 06:05:51;;;;;;;15.73;14.25;;;;;;;23.16;69.38;100558.53;5093040;28;20295;-67
2021/06/17 06:08:18;;;;;;;15.38;13.65;;;;;;;23.36;68.52;100553.47;5093086;28;20224;-68
2021/06/17 06:10:46;;;;;;;14.48;13.05;;;;;;;23.58;68.00;100549.06;5095298;28;20226;-68
2021/06/17 06:13:13;;;;;;;14.70;13.05;;;;;;;23.82;67.75;100551.56;5093419;28;20555;-68
2021/06/17 06:15:39;;;;;;;13.50;12.20;;;;;;;24.04;66.96;100550.63;5093696;28;20207;-67
2021/06/17 06:18:08;;;;;;;14.48;12.77;;;;;;;24.27;66.24;100547.00;5093426;28;20610;-69
2021/06/17 06:20:36;;;;;;;14.52;12.25;;;;;;;24.48;66.19;100545.22;5091386;28;20202;-69
2021/06/17 06:23:02;;;;;;;11.60;10.60;;;;;;;24.70;65.95;100554.28;5094368;28;20225;-69
2021/06/17 06:25:29;;;;;;;12.75;11.45;;;;;;;24.91;65.31;100550.72;5095124;28;20575;-69
2021/06/17 06:27:57;;;;;;;11.93;10.73;;;;;;;25.12;64.85;100548.06;5096619;28;20227;-69
2021/06/17 06:30:24;;;;;;;11.70;10.50;;;;;;;25.34;63.86;100548.91;5092700;28;20208;-67
2021/06/17 06:32:50;;;;;;;11.02;9.98;;;;;;;25.56;62.29;100542.41;5093463;28;20687;-69
2021/06/17 06:35:17;;;;;;;10.85;9.82;;;;;;;25.71;60.89;100542.34;5093139;28;20204;-68
2021/06/17 06:37:48;;;;;;;10.88;9.45;;;;;;;25.89;60.17;100555.50;5110572;28;20233;-68
2021/06/17 06:40:16;;;;;;;10.65;9.65;;;;;;;26.09;59.21;100556.47;5106510;28;20196;-69
2021/06/17 06:42:42;;;;;;;10.57;9.23;;;;;;;26.26;58.67;100548.78;5102637;28;20240;-68
2021/06/17 06:45:12;;;;;;;10.10;9.07;;;;;;;26.45;57.28;100549.97;5096698;28;20211;-69
2021/06/17 06:47:39;;;;;;;9.13;8.35;;;;;;;26.61;56.45;100552.38;5100445;28;20808;-69
2021/06/17 06:50:07;;;;;;;9.63;8.75;;;;;;;26.81;55.90;100563.38;5104444;28;20195;-68
2021/06/17 06:52:33;;;;;;;8.57;7.68;;;;;;;26.98;54.77;100561.97;5103132;28;20207;-69
2021/06/17 06:55:00;;;;;;;8.50;7.70;;;;;;;27.14;53.74;100555.28;5111795;28;20203;-67
2021/06/17 06:57:27;;;;;;;8.55;7.72;;;;;;;27.29;52.93;100553.22;5108741;28;20672;-68
2021/06/17 06:59:53;;;;;;;8.35;7.70;;;;;;;27.45;52.31;100550.06;5111339;28;20191;-69
2021/06/17 07:02:21;;;;;;;8.48;7.75;;;;;;;27.61;51.37;100554.31;5105957;28;20247;-68
2021/06/17 07:04:48;;;;;;;8.57;7.68;;;;;;;27.74;50.61;100557.06;5101570;28;20580;-67
2021/06/17 07:07:15;;;;;;;12.35;7.80;;;;;;;27.84;50.59;100559.34;5100693;28;20207;-68
2021/06/17 07:09:42;;;;;;;8.77;7.88;;;;;;;27.93;50.27;100560.84;5093799;28;20204;-68
2021/06/17 07:12:09;;;;;;;8.90;8.20;;;;;;;28.02;50.13;100564.19;5093088;28;20578;-68
2021/06/17 07:14:36;;;;;;;9.45;8.23;;;;;;;28.12;50.12;100556.38;5096784;28;20207;-67
2021/06/17 07:17:03;;;;;;;9.88;8.10;;;;;;;28.21;50.02;100553.22;5111693;28;20285;-69
2021/06/17 07:19:30;;;;;;;8.25;7.40;;;;;;;28.31;49.32;100552.75;5110096;28;20226;-68
2021/06/17 07:21:58;;;;;;;9.07;7.50;;;;;;;28.41;49.46;100542.22;5110336;28;20595;-68
2021/06/17 07:24:25;;;;;;;8.15;7.45;;;;;;;28.50;48.83;100548.28;5110811;28;20311;-69
2021/06/17 07:26:52;;;;;;;8.30;7.50;;;;;;;28.59;48.97;100553.31;5108906;28;20207;-69
2021/06/17 07:29:19;;;;;;;8.02;7.22;;;;;;;28.73;49.32;100558.72;5106713;28;20251;-68
2021/06/17 07:31:46;;;;;;;8.40;7.60;;;;;;;28.85;48.30;100555.09;5108266;28;20205;-68
2021/06/17 07:34:12;;;;;;;7.80;7.10;;;;;;;28.97;48.33;100567.09;5103256;28;20199;-67
2021/06/17 07:36:40;;;;;;;8.23;7.40;;;;;;;29.10;47.90;100568.06;5107596;28;20209;-66
2021/06/17 07:39:09;;;;;;;8.70;7.72;;;;;;;29.20;47.39;100565.69;5097326;28;20222;-68
2021/06/17 07:41:36;;;;;;;9.15;7.55;;;;;;;29.33;47.53;100576.56;5097775;28;20248;-69
2021/06/17 07:44:04;;;;;;;7.97;7.22;;;;;;;29.43;47.17;100573.34;5103734;28;20206;-68
2021/06/17 07:46:37;;;;;;;9.30;7.25;;;;;;;29.52;46.42;100570.13;5108909;28;20225;-68
2021/06/17 07:49:04;;;;;;;8.60;7.78;;;;;;;29.58;45.96;100577.44;5108015;28;20233;-68
2021/06/17 07:51:32;;;;;;;7.82;7.18;;;;;;;29.63;46.30;100577.63;5103938;28;20203;-67
2021/06/17 07:54:01;;;;;;;7.50;6.90;;;;;;;29.74;46.31;100580.72;5103331;28;20225;-67
2021/06/17 07:56:27;;;;;;;8.05;7.20;;;;;;;29.86;45.59;100578.94;5107717;28;20210;-69
2021/06/17 07:58:54;;;;;;;7.43;6.82;;;;;;;29.95;45.24;100574.81;5100763;28;20224;-68
2021/06/17 08:01:20;;;;;;;7.75;7.15;;;;;;;30.03;44.81;100569.91;5104592;28;20286;-68
2021/06/17 08:03:47;;;;;;;8.30;6.90;;;;;;;30.12;44.73;100578.69;5102178;28;20222;-67
2021/06/17 08:06:14;;;;;;;7.22;6.53;;;;;;;30.21;44.49;100574.59;5099950;28;20204;-68
2021/06/17 08:08:40;;;;;;;7.30;6.80;;;;;;;30.32;44.01;100573.00;5105749;28;20589;-68
2021/06/17 08:11:08;;;;;;;8.55;6.60;;;;;;;30.45;44.20;100570.13;5103748;28;20226;-68
2021/06/17 08:13:35;;;;;;;7.10;6.57;;;;;;;30.58;43.97;100575.47;5107522;28;20199;-68
2021/06/17 08:16:02;;;;;;;7.75;7.05;;;;;;;30.70;43.82;100573.63;5106835;28;20203;-68
2021/06/17 08:18:28;;;;;;;7.40;6.70;;;;;;;30.81;43.18;100577.53;5110777;28;20222;-68
2021/06/17 08:20:57;;;;;;;7.72;7.00;;;;;;;30.92;42.77;100576.72;5106269;28;20419;-68
2021/06/17 08:23:25;;;;;;;7.57;6.90;;;;;;;30.98;42.45;100564.81;5098713;28;20681;-68
2021/06/17 08:25:52;;;;;;;7.63;6.93;;;;;;;31.04;42.38;100574.03;5109687;28;20222;-66
2021/06/17 08:28:23;;;;;;;7.82;7.05;;;;;;;31.12;42.59;100570.16;5106706;28;20215;-68
2021/06/17 08:30:49;;;;;;;6.68;6.10;;;;;;;31.20;42.69;100569.78;5099305;28;20205;-68
2021/06/17 08:33:16;;;;;;;7.47;6.82;;;;;;;31.31;41.99;100560.75;5103964;28;20650;-68
2021/06/17 08:35:42;;;;;;;6.68;6.07;;;;;;;31.41;41.02;100569.28;5110166;28;20217;-67
2021/06/17 08:38:09;;;;;;;8.27;6.95;;;;;;;31.49;41.01;100565.34;5106395;28;20223;-68
2021/06/17 08:40:36;;;;;;;7.35;6.72;;;;;;;31.57;41.17;100565.81;5108615;28;20202;-68
2021/06/17 08:43:03;;;;;;;6.75;6.15;;;;;;;31.65;40.53;100561.91;5105986;28;20230;-68
2021/06/17 08:45:32;;;;;;;7.15;6.40;;;;;;;31.72;40.12;100566.25;5100469;28;20204;-68
2021/06/17 08:47:58;;;;;;;9.00;6.50;;;;;;;31.79;39.84;100570.81;5109850;28;20227;-66
2021/06/17 08:50:25;;;;;;;9.60;5.82;;;;;;;31.83;39.08;100563.75;5103725;28;20200;-68
2021/06/17 08:52:52;;;;;;;6.00;5.50;;;;;;;31.88;38.90;100566.63;5103544;28;20203;-68
2021/06/17 08:55:22;;;;;;;6.07;5.53;;;;;;;31.94;38.78;100554.63;5106683;28;20681;-68
2021/06/17 08:57:50;;;;;;;6.50;5.93;;;;;;;32.05;38.72;100554.66;5101667;28;20230;-68
2021/06/17 09:00:36;;;;;;;6.30;5.60;;;;;;;32.20;38.10;100556.94;5101373;28;20630;-68
2021/06/17 09:03:05;;;;;;;6.35;5.85;;;;;;;32.31;37.70;100550.56;5103976;28;20208;-68
2021/06/17 09:05:33;;;;;;;6.13;5.63;;;;;;;32.47;37.36;100543.47;5109550;28;20888;-66
2021/06/17 09:08:00;;;;;;;5.35;4.95;;;;;;;32.56;36.70;100538.41;5106490;28;20223;-66
2021/06/17 09:10:28;;;;;;;5.63;5.13;;;;;;;32.62;36.67;100541.03;5108049;28;20211;-67
2021/06/17 09:12:56;;;;;;;5.70;5.20;;;;;;;32.71;35.97;100535.97;5091589;28;20196;-68
2021/06/17 09:15:43;;;;;;;5.57;5.05;;;;;;;32.81;36.37;100538.94;5090895;28;20204;-68
2021/06/17 09:18:22;;;;;;;6.15;5.60;;;;;;;32.90;35.61;100537.50;5091019;28;20216;-68
2021/06/17 09:20:51;;;;;;;5.68;5.18;;;;;;;32.96;36.60;100527.41;5091042;28;20198;-69
2021/06/17 09:23:27;;;;;;;6.20;5.68;;;;;;;33.05;36.62;100526.72;5090841;28;20246;-68
2021/06/17 09:25:57;;;;;;;6.93;6.30;;;;;;;33.13;36.22;100538.47;5100931;28;20667;-70
2021/06/17 09:28:23;;;;;;;6.35;5.85;;;;;;;33.20;36.89;100534.44;5103141;28;20223;-65
2021/06/17 09:30:52;;;;;;;8.45;5.60;;;;;;;33.32;37.08;100531.66;5104872;28;20688;-68
2021/06/17 09:33:18;;;;;;;5.95;5.45;;;;;;;33.40;36.38;100525.72;5099691;28;20206;-69
2021/06/17 09:35:51;;;;;;;6.20;5.60;;;;;;;33.47;35.75;100531.09;5112938;28;20203;-68
2021/06/17 09:38:19;;;;;;;5.93;5.47;;;;;;;33.49;34.57;100535.28;5110570;28;20221;-68
2021/06/17 09:40:47;;;;;;;5.40;5.00;;;;;;;33.52;34.88;100532.00;5104935;28;20206;-68
2021/06/17 09:43:17;;;;;;;5.88;5.38;;;;;;;33.57;35.05;100529.31;5107900;28;20223;-69
2021/06/17 09:45:56;;;;;;;5.60;5.03;;;;;;;33.62;34.90;100526.66;5100074;28;20294;-69
2021/06/17 09:48:35;;;;;;;5.95;5.15;;;;;;;33.69;35.41;100523.69;5110043;22;20239;-69
2021/06/17 09:51:24;;;;;;;5.38;4.93;;;;;;;33.79;34.75;100529.44;5055071;28;20232;-68
2021/06/17 09:53:52;;;;;;;7.32;5.47;;;;;;;33.81;33.60;100523.66;5050597;28;20206;-69
2021/06/17 09:56:31;;;;;;;5.32;4.88;;;;;;;33.82;33.36;100523.41;5052664;28;20212;-69
2021/06/17 09:58:57;;;;;;;5.63;4.88;;;;;;;33.84;33.13;100532.28;5056738;28;20235;-69
2021/06/17 10:01:34;;;;;;;5.05;4.65;;;;;;;33.87;32.29;100522.63;5052878;28;20208;-69
2021/06/17 10:04:05;;;;;;;4.80;4.40;;;;;;;33.88;32.12;100521.53;5054132;28;20631;-69
2021/06/17 10:06:34;;;;;;;5.30;4.82;;;;;;;33.96;33.20;100524.72;5054408;28;20233;-69
2021/06/17 10:09:03;;;;;;;5.28;4.22;;;;;;;34.13;32.87;100521.91;5053509;28;20217;-69
2021/06/17 10:11:30;;;;;;;5.82;3.90;;;;;;;34.26;31.69;100524.28;5053437;28;20208;-69
2021/06/17 10:13:57;;;;;;;4.80;4.40;;;;;;;34.35;31.07;100516.44;5054305;28;20207;-69
2021/06/17 10:16:24;;;;;;;5.68;4.60;;;;;;;34.44;31.19;100509.34;5058498;28;20677;-70
2021/06/17 10:18:52;;;;;;;5.00;4.13;;;;;;;34.56;31.20;100514.78;5060567;28;20225;-69
2021/06/17 10:21:18;;;;;;;5.53;4.75;;;;;;;34.58;30.47;100512.56;5065819;28;20563;-69
2021/06/17 10:23:46;;;;;;;9.63;4.35;;;;;;;34.60;30.52;100513.97;5061271;28;20216;-69
2021/06/17 10:26:13;;;;;;;4.03;3.70;;;;;;;34.61;29.89;100510.09;5059635;28;20209;-69
2021/06/17 10:28:43;;;;;;;4.65;3.92;;;;;;;34.55;29.50;100511.16;5061825;28;20221;-69
2021/06/17 10:31:11;;;;;;;5.97;4.07;;;;;;;34.46;30.06;100508.00;5056757;28;20208;-68
2021/06/17 10:33:40;;;;;;;4.00;3.55;;;;;;;34.43;29.39;100502.16;5067849;28;20540;-70
2021/06/17 10:36:25;;;;;;;5.50;3.88;;;;;;;34.50;29.85;100508.31;5060113;28;20316;-69
2021/06/17 10:39:14;;;;;;;4.70;4.20;;;;;;;34.60;29.48;100508.44;5057719;28;20236;-69
2021/06/17 10:42:13;;;;;;;5.45;4.13;;;;;;;34.68;29.63;100515.47;5042437;28;20205;-69
2021/06/17 10:44:54;;;;;;;4.15;3.53;;;;;;;34.74;28.47;100515.25;5056367;28;20197;-69
2021/06/17 10:48:01;;;;;;;3.40;3.20;;;;;;;34.78;28.37;100516.44;5056100;28;20197;-70
2021/06/17 10:50:33;;;;;;;4.35;3.92;;;;;;;34.83;28.63;100517.59;5054814;28;20435;-69
2021/06/17 10:53:46;;;;;;;4.10;3.65;;;;;;;34.89;28.59;100514.63;5056123;28;20623;-69
2021/06/17 10:56:19;;;;;;;4.63;4.10;;;;;;;34.98;28.10;100510.28;4974564;28;20230;-69
2021/06/17 10:59:04;;;;;;;3.70;3.50;;;;;;;35.00;27.01;100499.78;5049412;28;20220;-69
2021/06/17 11:01:37;;;;;;;3.60;3.30;;;;;;;34.99;26.56;100503.66;5053894;28;20220;-69
2021/06/17 11:04:12;;;;;;;4.28;3.60;;;;;;;35.03;27.31;100503.97;5068330;28;20582;-67
2021/06/17 11:07:17;;;;;;;3.80;3.50;;;;;;;35.10;27.63;100501.81;5058660;28;20196;-67
2021/06/17 11:10:01;;;;;;;5.00;4.13;;;;;;;35.18;27.42;100509.63;5052122;28;20235;-67
2021/06/17 11:12:48;;;;;;;4.07;3.67;;;;;;;35.13;26.60;100495.75;5056522;28;20201;-68
2021/06/17 11:15:44;;;;;;;5.57;3.28;;;;;;;35.08;27.77;100490.19;5050148;28;20211;-68
2021/06/17 11:18:11;;;;;;;3.33;3.03;;;;;;;35.06;27.72;100495.13;5053843;28;20224;-68
2021/06/17 11:20:40;;;;;;;4.43;3.50;;;;;;;35.09;27.81;100484.38;5054879;28;20293;-67
2021/06/17 11:23:07;;;;;;;3.38;3.00;;;;;;;35.15;27.32;100486.06;5057232;28;20689;-67
2021/06/17 11:25:38;;;;;;;4.13;2.85;;;;;;;35.19;26.74;100485.56;5053071;28;20228;-67
2021/06/17 11:28:07;;;;;;;4.10;3.70;;;;;;;35.19;26.06;100478.09;5059815;28;20220;-68
2021/06/17 11:31:04;;;;;;;4.10;3.60;;;;;;;35.22;26.42;100479.50;5058022;28;20198;-67